Pittenweem, United Kingdom
Current Conditions -  °F | °C
As of 5:50 PM on Sunday 21 Dec 2014 (Local Time) from EGQL Reporting Station
Moderate Rain Moderate Rain  
Wind Chill: 52°   Ceiling: 5000
Heat Index: 52°   Visibility: 6mi
Dew Point: 50°   Wind: 23mph
Humidity: 94%   Direction: 250°WSW
Pressure: 29.59"   Gusts: NA
Location:  56.21°N, 2.73°W
Report Text: EGQL 211750Z 25020KT 9999 RA BKN050 11/10 Q1002 BLU
Loading
Personal Weather Stations






























Interactive Weather Map New forecast layout! Learn more

10-Day Weather Forecast

Advertisements
Track Severe Weather on mobile